Погода Омаруруна 2 недели

Эронго, Намибия

21 февраля-05 марта
  • 21февраля
    Сегодня
    +22°
    +38°
    Небольшая облачность
    ВремяПогодаТемператураВлажностьДавлениеВетер, м/сВероятность осадков
    02:00Ясно и безоблачно+24°C42 %662 мм2.2 м/с5 %
    05:00Ясно и безоблачно+24°C48 %662 мм1.6 м/с5 %
    08:00Ясно и безоблачно+25°C44 %663 мм2.1 м/с5 %
    11:00Небольшая облачность+34°C25 %665 мм3.9 м/с5 %
    14:00Небольшая облачность+37°C19 %664 мм3.1 м/с5 %
    17:00Облачно с прояснениями+37°C18 %662 мм2.0 м/с3 %
    20:00Небольшая облачность+32°C27 %662 мм5.2 м/с7 %
    23:00Ясно и безоблачно+29°C27 %663 мм4.1 м/с4 %
  • 22февраля
    Четверг
    +22°
    +39°
    Небольшая облачность
    ВремяПогодаТемператураВлажностьДавлениеВетер, м/сВероятность осадков
    02:00Ясно и безоблачно+26°C29 %661 мм3.6 м/с5 %
    05:00Облачно с прояснениями+23°C31 %660 мм3.1 м/с5 %
    08:00Практически безоблачно+25°C35 %661 мм2.5 м/с5 %
    11:00Небольшая облачность+35°C20 %663 мм3.8 м/с5 %
    14:00Небольшая облачность+38°C14 %662 мм2.2 м/с5 %
    17:00Облачно с прояснениями+37°C14 %661 мм1.9 м/с2 %
    20:00Практически безоблачно+33°C20 %661 мм6.4 м/с10 %
    23:00Практически безоблачно+29°C28 %662 мм2.6 м/с4 %
  • 23февраля
    Пятница
    +21°
    +39°
    Облачно с прояснениями
    ВремяПогодаТемператураВлажностьДавлениеВетер, м/сВероятность осадков
    02:00Ясно и безоблачно+26°C31 %660 мм2.8 м/с3 %
    05:00Облачно с прояснениями+24°C37 %660 мм2.4 м/с5 %
    08:00Облачно с прояснениями+25°C37 %661 мм1.4 м/с2 %
    11:00Облачно с прояснениями+35°C18 %663 мм5.1 м/с3 %
    14:00Облачно с прояснениями+39°C14 %661 мм3.8 м/с2 %
    17:00Практически безоблачно+37°C17 %661 мм4.3 м/с21 %
    20:00Ясно и безоблачно+31°C18 %661 мм6.3 м/с15 %
    23:00Ясно и безоблачно+28°C20 %662 мм3.2 м/с13 %
  • 24февраля
    Суббота
    +20°
    +38°
    Ясно и безоблачно
    ВремяПогодаТемператураВлажностьДавлениеВетер, м/сВероятность осадков
    02:00Ясно и безоблачно+24°C25 %661 мм2.2 м/с10 %
    05:00Практически безоблачно+23°C25 %660 мм2.5 м/с10 %
    08:00Практически безоблачно+23°C27 %662 мм1.9 м/с7 %
    11:00Ясно и безоблачно+33°C17 %664 мм1.7 м/с5 %
    14:00Ясно и безоблачно+37°C15 %663 мм1.6 м/с4 %
    17:00Облачно с прояснениями+37°C12 %661 мм6.9 м/с7 %
    20:00Небольшая облачность+30°C18 %662 мм5.8 м/с14 %
    23:00Ясно и безоблачно+25°C26 %663 мм3.7 м/с11 %
  • 25февраля
    Воскресенье
    +19°
    +38°
    Ясно и безоблачно
    ВремяПогодаТемператураВлажностьДавлениеВетер, м/сВероятность осадков
    02:00Ясно и безоблачно+23°C29 %662 мм2.3 м/с13 %
    05:00Ясно и безоблачно+21°C31 %661 мм2.8 м/с6 %
    08:00Ясно и безоблачно+22°C28 %663 мм2.5 м/с5 %
    11:00Ясно и безоблачно+32°C12 %665 мм3.4 м/с4 %
    14:00Ясно и безоблачно+37°C10 %664 мм3.4 м/с5 %
    17:00Ясно и безоблачно+36°C9 %662 мм5.3 м/с3 %
    20:00Ясно и безоблачно+31°C15 %663 мм6.5 м/с18 %
    23:00Ясно и безоблачно+26°C19 %663 мм1.7 м/с14 %
Мы используем cookies
Соглашаюсь